sensor_id;sensor_type;location;lat;lon;timestamp;P1;durP1;ratioP1;P2;durP2;ratioP2
1701;SDS011;848;48.354;10.064;2023-07-20T00:00:08;5.32;;;1.75;;
1701;SDS011;848;48.354;10.064;2023-07-20T00:02:37;5.38;;;2.15;;
1701;SDS011;848;48.354;10.064;2023-07-20T00:05:04;3.33;;;1.60;;
1701;SDS011;848;48.354;10.064;2023-07-20T00:07:33;5.03;;;1.52;;
1701;SDS011;848;48.354;10.064;2023-07-20T00:10:00;3.25;;;1.50;;
1701;SDS011;848;48.354;10.064;2023-07-20T00:12:27;3.45;;;1.30;;
1701;SDS011;848;48.354;10.064;2023-07-20T00:14:54;2.80;;;1.55;;
1701;SDS011;848;48.354;10.064;2023-07-20T00:17:21;2.85;;;1.50;;
1701;SDS011;848;48.354;10.064;2023-07-20T00:19:47;4.63;;;1.63;;
1701;SDS011;848;48.354;10.064;2023-07-20T00:22:14;3.47;;;1.70;;
1701;SDS011;848;48.354;10.064;2023-07-20T00:24:43;2.65;;;1.70;;
1701;SDS011;848;48.354;10.064;2023-07-20T00:27:09;2.08;;;1.38;;
1701;SDS011;848;48.354;10.064;2023-07-20T00:29:36;4.45;;;1.50;;
1701;SDS011;848;48.354;10.064;2023-07-20T00:32:03;5.15;;;1.52;;
1701;SDS011;848;48.354;10.064;2023-07-20T00:34:31;3.20;;;2.00;;
1701;SDS011;848;48.354;10.064;2023-07-20T00:36:58;2.55;;;1.42;;
1701;SDS011;848;48.354;10.064;2023-07-20T00:39:25;4.15;;;1.60;;
1701;SDS011;848;48.354;10.064;2023-07-20T00:41:53;2.10;;;1.60;;
1701;SDS011;848;48.354;10.064;2023-07-20T00:44:20;3.15;;;1.60;;
1701;SDS011;848;48.354;10.064;2023-07-20T00:46:47;6.55;;;1.77;;
1701;SDS011;848;48.354;10.064;2023-07-20T00:49:14;3.10;;;1.67;;
1701;SDS011;848;48.354;10.064;2023-07-20T00:51:42;3.25;;;1.80;;
1701;SDS011;848;48.354;10.064;2023-07-20T00:54:09;3.75;;;2.10;;
1701;SDS011;848;48.354;10.064;2023-07-20T00:56:36;4.50;;;1.70;;
1701;SDS011;848;48.354;10.064;2023-07-20T00:59:05;3.60;;;1.60;;
1701;SDS011;848;48.354;10.064;2023-07-20T01:01:32;5.65;;;1.75;;
1701;SDS011;848;48.354;10.064;2023-07-20T01:03:59;5.00;;;1.83;;
1701;SDS011;848;48.354;10.064;2023-07-20T01:06:30;4.65;;;1.85;;
1701;SDS011;848;48.354;10.064;2023-07-20T01:09:05;3.58;;;1.73;;
1701;SDS011;848;48.354;10.064;2023-07-20T01:11:38;2.72;;;1.67;;
1701;SDS011;848;48.354;10.064;2023-07-20T01:14:11;4.25;;;1.80;;
1701;SDS011;848;48.354;10.064;2023-07-20T01:16:39;3.58;;;1.85;;
1701;SDS011;848;48.354;10.064;2023-07-20T01:19:06;3.60;;;2.20;;
1701;SDS011;848;48.354;10.064;2023-07-20T01:21:34;4.38;;;2.10;;
1701;SDS011;848;48.354;10.064;2023-07-20T01:30:16;5.93;;;2.10;;
1701;SDS011;848;48.354;10.064;2023-07-20T01:33:00;3.13;;;2.03;;
1701;SDS011;848;48.354;10.064;2023-07-20T01:35:28;4.55;;;1.95;;
1701;SDS011;848;48.354;10.064;2023-07-20T01:37:56;5.32;;;2.25;;
1701;SDS011;848;48.354;10.064;2023-07-20T01:40:24;4.22;;;2.40;;
1701;SDS011;848;48.354;10.064;2023-07-20T01:42:52;8.43;;;2.60;;
1701;SDS011;848;48.354;10.064;2023-07-20T01:45:19;2.75;;;2.15;;
1701;SDS011;848;48.354;10.064;2023-07-20T01:47:46;3.70;;;2.05;;
1701;SDS011;848;48.354;10.064;2023-07-20T01:50:14;4.50;;;2.25;;
1701;SDS011;848;48.354;10.064;2023-07-20T01:52:41;3.58;;;1.80;;
1701;SDS011;848;48.354;10.064;2023-07-20T01:55:08;5.82;;;1.90;;
1701;SDS011;848;48.354;10.064;2023-07-20T01:57:35;2.55;;;2.35;;
1701;SDS011;848;48.354;10.064;2023-07-20T02:00:03;6.63;;;1.90;;
1701;SDS011;848;48.354;10.064;2023-07-20T02:02:30;4.30;;;2.67;;
1701;SDS011;848;48.354;10.064;2023-07-20T02:04:57;2.65;;;2.08;;
1701;SDS011;848;48.354;10.064;2023-07-20T02:07:28;5.95;;;2.05;;
1701;SDS011;848;48.354;10.064;2023-07-20T02:09:56;2.90;;;2.30;;
1701;SDS011;848;48.354;10.064;2023-07-20T02:12:23;4.82;;;1.98;;
1701;SDS011;848;48.354;10.064;2023-07-20T02:14:50;5.40;;;2.10;;
1701;SDS011;848;48.354;10.064;2023-07-20T02:17:18;2.55;;;1.83;;
1701;SDS011;848;48.354;10.064;2023-07-20T02:19:45;2.97;;;2.05;;
1701;SDS011;848;48.354;10.064;2023-07-20T02:22:14;3.80;;;2.08;;
1701;SDS011;848;48.354;10.064;2023-07-20T02:24:43;4.53;;;2.67;;
1701;SDS011;848;48.354;10.064;2023-07-20T02:27:10;2.92;;;2.15;;
1701;SDS011;848;48.354;10.064;2023-07-20T02:29:37;3.38;;;1.85;;
1701;SDS011;848;48.354;10.064;2023-07-20T02:32:04;4.35;;;2.30;;
1701;SDS011;848;48.354;10.064;2023-07-20T02:34:31;7.40;;;2.40;;
1701;SDS011;848;48.354;10.064;2023-07-20T02:36:58;6.38;;;2.30;;
1701;SDS011;848;48.354;10.064;2023-07-20T02:39:26;3.47;;;2.20;;
1701;SDS011;848;48.354;10.064;2023-07-20T02:41:55;3.00;;;2.30;;
1701;SDS011;848;48.354;10.064;2023-07-20T02:44:22;3.35;;;1.95;;
1701;SDS011;848;48.354;10.064;2023-07-20T02:46:49;6.82;;;2.15;;
1701;SDS011;848;48.354;10.064;2023-07-20T02:49:16;3.95;;;2.67;;
1701;SDS011;848;48.354;10.064;2023-07-20T02:51:43;4.43;;;2.40;;
1701;SDS011;848;48.354;10.064;2023-07-20T02:54:09;4.45;;;2.55;;
1701;SDS011;848;48.354;10.064;2023-07-20T02:56:36;5.63;;;2.40;;
1701;SDS011;848;48.354;10.064;2023-07-20T02:59:05;4.90;;;2.03;;
1701;SDS011;848;48.354;10.064;2023-07-20T03:01:31;6.57;;;2.60;;
1701;SDS011;848;48.354;10.064;2023-07-20T03:03:58;4.20;;;2.80;;
1701;SDS011;848;48.354;10.064;2023-07-20T03:06:25;3.40;;;2.30;;
1701;SDS011;848;48.354;10.064;2023-07-20T03:08:52;4.95;;;2.40;;
1701;SDS011;848;48.354;10.064;2023-07-20T03:11:19;3.92;;;2.10;;
1701;SDS011;848;48.354;10.064;2023-07-20T03:13:47;4.15;;;2.53;;
1701;SDS011;848;48.354;10.064;2023-07-20T03:16:18;3.22;;;2.00;;
1701;SDS011;848;48.354;10.064;2023-07-20T03:18:46;3.50;;;1.90;;
1701;SDS011;848;48.354;10.064;2023-07-20T03:21:13;4.13;;;2.55;;
1701;SDS011;848;48.354;10.064;2023-07-20T03:23:40;3.47;;;2.25;;
1701;SDS011;848;48.354;10.064;2023-07-20T03:26:07;2.67;;;2.00;;
1701;SDS011;848;48.354;10.064;2023-07-20T03:28:34;5.93;;;2.20;;
1701;SDS011;848;48.354;10.064;2023-07-20T03:31:01;3.97;;;2.22;;
1701;SDS011;848;48.354;10.064;2023-07-20T03:33:30;5.82;;;2.50;;
1701;SDS011;848;48.354;10.064;2023-07-20T03:35:57;4.15;;;2.17;;
1701;SDS011;848;48.354;10.064;2023-07-20T03:38:24;3.80;;;2.28;;
1701;SDS011;848;48.354;10.064;2023-07-20T03:40:53;3.22;;;2.30;;
1701;SDS011;848;48.354;10.064;2023-07-20T03:43:21;5.07;;;2.50;;
1701;SDS011;848;48.354;10.064;2023-07-20T03:45:48;3.35;;;2.80;;
1701;SDS011;848;48.354;10.064;2023-07-20T03:48:16;3.58;;;2.53;;
1701;SDS011;848;48.354;10.064;2023-07-20T03:50:45;4.60;;;2.63;;
1701;SDS011;848;48.354;10.064;2023-07-20T03:53:13;8.07;;;3.25;;
1701;SDS011;848;48.354;10.064;2023-07-20T03:55:40;5.13;;;2.78;;
1701;SDS011;848;48.354;10.064;2023-07-20T03:58:07;6.18;;;3.05;;
1701;SDS011;848;48.354;10.064;2023-07-20T04:00:34;3.45;;;2.42;;
1701;SDS011;848;48.354;10.064;2023-07-20T04:03:01;3.42;;;3.13;;
1701;SDS011;848;48.354;10.064;2023-07-20T04:05:28;4.25;;;2.78;;
1701;SDS011;848;48.354;10.064;2023-07-20T04:07:56;8.82;;;5.15;;
1701;SDS011;848;48.354;10.064;2023-07-20T04:10:23;7.85;;;4.55;;
1701;SDS011;848;48.354;10.064;2023-07-20T04:12:50;5.78;;;3.90;;
1701;SDS011;848;48.354;10.064;2023-07-20T04:15:17;5.10;;;3.30;;
1701;SDS011;848;48.354;10.064;2023-07-20T04:17:44;8.00;;;2.67;;
1701;SDS011;848;48.354;10.064;2023-07-20T04:20:11;3.75;;;3.00;;
1701;SDS011;848;48.354;10.064;2023-07-20T04:22:39;4.28;;;2.35;;
1701;SDS011;848;48.354;10.064;2023-07-20T04:25:07;4.43;;;2.53;;
1701;SDS011;848;48.354;10.064;2023-07-20T04:27:35;5.88;;;2.65;;
1701;SDS011;848;48.354;10.064;2023-07-20T04:30:02;4.07;;;3.22;;
1701;SDS011;848;48.354;10.064;2023-07-20T04:32:30;4.18;;;2.65;;
1701;SDS011;848;48.354;10.064;2023-07-20T04:34:58;4.15;;;3.05;;
1701;SDS011;848;48.354;10.064;2023-07-20T04:37:25;5.22;;;2.67;;
1701;SDS011;848;48.354;10.064;2023-07-20T04:39:52;3.75;;;2.60;;
1701;SDS011;848;48.354;10.064;2023-07-20T04:42:20;3.75;;;2.42;;
1701;SDS011;848;48.354;10.064;2023-07-20T04:44:47;6.82;;;3.45;;
1701;SDS011;848;48.354;10.064;2023-07-20T04:47:14;4.28;;;2.88;;
1701;SDS011;848;48.354;10.064;2023-07-20T04:49:41;8.70;;;3.30;;
1701;SDS011;848;48.354;10.064;2023-07-20T04:52:08;5.47;;;3.42;;
1701;SDS011;848;48.354;10.064;2023-07-20T04:54:35;4.18;;;2.65;;
1701;SDS011;848;48.354;10.064;2023-07-20T04:57:02;4.57;;;2.70;;
1701;SDS011;848;48.354;10.064;2023-07-20T04:59:37;4.90;;;2.63;;
1701;SDS011;848;48.354;10.064;2023-07-20T05:02:04;5.13;;;3.15;;
1701;SDS011;848;48.354;10.064;2023-07-20T05:04:31;4.65;;;2.80;;
1701;SDS011;848;48.354;10.064;2023-07-20T05:06:58;7.90;;;2.80;;
1701;SDS011;848;48.354;10.064;2023-07-20T05:09:25;5.22;;;3.53;;
1701;SDS011;848;48.354;10.064;2023-07-20T05:11:52;5.88;;;3.55;;
1701;SDS011;848;48.354;10.064;2023-07-20T05:14:18;3.97;;;2.85;;
1701;SDS011;848;48.354;10.064;2023-07-20T05:16:47;4.88;;;2.85;;
1701;SDS011;848;48.354;10.064;2023-07-20T05:19:13;6.32;;;2.72;;
1701;SDS011;848;48.354;10.064;2023-07-20T05:21:40;7.75;;;3.72;;
1701;SDS011;848;48.354;10.064;2023-07-20T05:24:07;6.50;;;2.97;;
1701;SDS011;848;48.354;10.064;2023-07-20T05:26:34;4.20;;;3.30;;
1701;SDS011;848;48.354;10.064;2023-07-20T05:29:01;4.38;;;2.75;;
1701;SDS011;848;48.354;10.064;2023-07-20T05:31:28;5.20;;;3.38;;
1701;SDS011;848;48.354;10.064;2023-07-20T05:33:58;3.97;;;2.90;;
1701;SDS011;848;48.354;10.064;2023-07-20T05:36:25;4.45;;;2.72;;
1701;SDS011;848;48.354;10.064;2023-07-20T05:38:52;4.75;;;2.83;;
1701;SDS011;848;48.354;10.064;2023-07-20T05:41:19;7.95;;;3.95;;
1701;SDS011;848;48.354;10.064;2023-07-20T05:43:47;4.85;;;3.10;;
1701;SDS011;848;48.354;10.064;2023-07-20T05:46:14;4.53;;;2.80;;
1701;SDS011;848;48.354;10.064;2023-07-20T05:48:41;6.38;;;2.50;;
1701;SDS011;848;48.354;10.064;2023-07-20T05:51:09;3.47;;;2.90;;
1701;SDS011;848;48.354;10.064;2023-07-20T05:53:36;5.25;;;2.70;;
1701;SDS011;848;48.354;10.064;2023-07-20T05:56:06;5.22;;;2.50;;
1701;SDS011;848;48.354;10.064;2023-07-20T05:58:35;10.55;;;3.17;;
1701;SDS011;848;48.354;10.064;2023-07-20T06:01:03;6.40;;;3.10;;
1701;SDS011;848;48.354;10.064;2023-07-20T06:03:30;5.05;;;2.85;;
1701;SDS011;848;48.354;10.064;2023-07-20T06:05:58;3.22;;;2.00;;
1701;SDS011;848;48.354;10.064;2023-07-20T06:08:27;5.07;;;3.00;;
1701;SDS011;848;48.354;10.064;2023-07-20T06:10:54;4.47;;;2.58;;
1701;SDS011;848;48.354;10.064;2023-07-20T06:13:21;3.92;;;2.97;;
1701;SDS011;848;48.354;10.064;2023-07-20T06:15:48;8.93;;;3.17;;
1701;SDS011;848;48.354;10.064;2023-07-20T06:18:15;5.93;;;3.20;;
1701;SDS011;848;48.354;10.064;2023-07-20T06:20:42;2.50;;;2.28;;
1701;SDS011;848;48.354;10.064;2023-07-20T06:23:09;2.60;;;2.40;;
1701;SDS011;848;48.354;10.064;2023-07-20T06:25:37;4.07;;;2.88;;
1701;SDS011;848;48.354;10.064;2023-07-20T06:28:04;2.65;;;2.40;;
1701;SDS011;848;48.354;10.064;2023-07-20T06:30:33;4.45;;;2.90;;
1701;SDS011;848;48.354;10.064;2023-07-20T06:33:00;4.28;;;2.53;;
1701;SDS011;848;48.354;10.064;2023-07-20T06:35:27;3.67;;;2.65;;
1701;SDS011;848;48.354;10.064;2023-07-20T06:37:54;4.50;;;2.45;;
1701;SDS011;848;48.354;10.064;2023-07-20T06:40:21;4.20;;;2.85;;
1701;SDS011;848;48.354;10.064;2023-07-20T06:42:49;3.97;;;2.65;;
1701;SDS011;848;48.354;10.064;2023-07-20T06:45:16;5.53;;;2.80;;
1701;SDS011;848;48.354;10.064;2023-07-20T06:47:43;6.82;;;3.13;;
1701;SDS011;848;48.354;10.064;2023-07-20T06:50:10;5.68;;;2.75;;
1701;SDS011;848;48.354;10.064;2023-07-20T06:52:39;6.00;;;2.42;;
1701;SDS011;848;48.354;10.064;2023-07-20T06:55:06;3.35;;;2.83;;
1701;SDS011;848;48.354;10.064;2023-07-20T06:57:35;4.57;;;2.78;;
1701;SDS011;848;48.354;10.064;2023-07-20T07:00:03;6.28;;;3.03;;
1701;SDS011;848;48.354;10.064;2023-07-20T07:02:31;3.88;;;2.83;;
1701;SDS011;848;48.354;10.064;2023-07-20T07:04:59;4.65;;;2.75;;
1701;SDS011;848;48.354;10.064;2023-07-20T07:07:26;3.83;;;2.60;;
1701;SDS011;848;48.354;10.064;2023-07-20T07:09:53;2.90;;;2.60;;
1701;SDS011;848;48.354;10.064;2023-07-20T07:12:20;6.55;;;2.70;;
1701;SDS011;848;48.354;10.064;2023-07-20T07:14:47;4.28;;;3.00;;
1701;SDS011;848;48.354;10.064;2023-07-20T07:17:15;4.35;;;3.05;;
1701;SDS011;848;48.354;10.064;2023-07-20T07:19:42;5.65;;;2.67;;
1701;SDS011;848;48.354;10.064;2023-07-20T07:22:09;3.75;;;2.20;;
1701;SDS011;848;48.354;10.064;2023-07-20T07:24:36;6.47;;;2.50;;
1701;SDS011;848;48.354;10.064;2023-07-20T07:27:05;5.07;;;2.78;;
1701;SDS011;848;48.354;10.064;2023-07-20T07:29:32;4.38;;;2.95;;
1701;SDS011;848;48.354;10.064;2023-07-20T07:31:59;5.50;;;2.70;;
1701;SDS011;848;48.354;10.064;2023-07-20T07:34:28;4.88;;;2.45;;
1701;SDS011;848;48.354;10.064;2023-07-20T07:36:55;8.27;;;2.80;;
1701;SDS011;848;48.354;10.064;2023-07-20T07:39:21;5.00;;;3.28;;
1701;SDS011;848;48.354;10.064;2023-07-20T07:41:49;4.20;;;2.53;;
1701;SDS011;848;48.354;10.064;2023-07-20T07:44:16;3.70;;;2.50;;
1701;SDS011;848;48.354;10.064;2023-07-20T07:46:43;4.60;;;2.40;;
1701;SDS011;848;48.354;10.064;2023-07-20T07:49:10;4.37;;;2.57;;
1701;SDS011;848;48.354;10.064;2023-07-20T07:51:38;4.47;;;2.30;;
1701;SDS011;848;48.354;10.064;2023-07-20T07:54:05;3.30;;;2.20;;
1701;SDS011;848;48.354;10.064;2023-07-20T07:56:32;4.17;;;2.30;;
1701;SDS011;848;48.354;10.064;2023-07-20T07:58:59;2.67;;;2.47;;
1701;SDS011;848;48.354;10.064;2023-07-20T08:01:26;3.97;;;2.60;;
1701;SDS011;848;48.354;10.064;2023-07-20T08:03:53;3.10;;;2.43;;
1701;SDS011;848;48.354;10.064;2023-07-20T08:06:20;3.23;;;2.93;;
1701;SDS011;848;48.354;10.064;2023-07-20T08:08:48;3.50;;;2.50;;
1701;SDS011;848;48.354;10.064;2023-07-20T08:11:15;4.80;;;2.80;;
1701;SDS011;848;48.354;10.064;2023-07-20T08:13:43;5.20;;;2.83;;
1701;SDS011;848;48.354;10.064;2023-07-20T08:16:10;3.03;;;2.10;;
1701;SDS011;848;48.354;10.064;2023-07-20T08:18:36;3.40;;;1.87;;
1701;SDS011;848;48.354;10.064;2023-07-20T08:21:03;2.80;;;2.17;;
1701;SDS011;848;48.354;10.064;2023-07-20T08:23:30;3.53;;;2.10;;
1701;SDS011;848;48.354;10.064;2023-07-20T08:25:58;3.90;;;2.30;;
1701;SDS011;848;48.354;10.064;2023-07-20T08:28:26;2.93;;;2.13;;
1701;SDS011;848;48.354;10.064;2023-07-20T08:30:54;3.37;;;2.60;;
1701;SDS011;848;48.354;10.064;2023-07-20T08:33:21;4.23;;;2.53;;
1701;SDS011;848;48.354;10.064;2023-07-20T08:35:48;2.63;;;2.43;;
1701;SDS011;848;48.354;10.064;2023-07-20T08:38:15;2.80;;;2.50;;
1701;SDS011;848;48.354;10.064;2023-07-20T08:40:42;4.70;;;3.10;;
1701;SDS011;848;48.354;10.064;2023-07-20T08:43:12;3.97;;;2.63;;
1701;SDS011;848;48.354;10.064;2023-07-20T08:45:41;3.47;;;2.50;;
1701;SDS011;848;48.354;10.064;2023-07-20T08:48:10;5.50;;;2.77;;
1701;SDS011;848;48.354;10.064;2023-07-20T08:50:38;3.30;;;2.53;;
1701;SDS011;848;48.354;10.064;2023-07-20T08:53:06;3.27;;;2.50;;
1701;SDS011;848;48.354;10.064;2023-07-20T08:55:34;3.47;;;2.33;;
1701;SDS011;848;48.354;10.064;2023-07-20T08:58:02;5.73;;;2.87;;
1701;SDS011;848;48.354;10.064;2023-07-20T09:00:33;2.67;;;2.47;;
1701;SDS011;848;48.354;10.064;2023-07-20T09:03:02;2.90;;;2.50;;
1701;SDS011;848;48.354;10.064;2023-07-20T09:05:29;6.27;;;2.73;;
1701;SDS011;848;48.354;10.064;2023-07-20T09:07:56;3.67;;;2.30;;
1701;SDS011;848;48.354;10.064;2023-07-20T09:10:24;5.10;;;2.43;;
1701;SDS011;848;48.354;10.064;2023-07-20T09:12:53;2.67;;;2.37;;
1701;SDS011;848;48.354;10.064;2023-07-20T09:15:24;3.57;;;2.20;;
1701;SDS011;848;48.354;10.064;2023-07-20T09:17:53;2.97;;;2.57;;
1701;SDS011;848;48.354;10.064;2023-07-20T09:20:27;2.57;;;2.37;;
1701;SDS011;848;48.354;10.064;2023-07-20T09:22:56;3.33;;;1.87;;
1701;SDS011;848;48.354;10.064;2023-07-20T09:25:23;2.90;;;2.10;;
1701;SDS011;848;48.354;10.064;2023-07-20T09:27:54;5.83;;;2.50;;
1701;SDS011;848;48.354;10.064;2023-07-20T09:30:24;2.40;;;2.13;;
1701;SDS011;848;48.354;10.064;2023-07-20T09:32:53;6.90;;;2.60;;
1701;SDS011;848;48.354;10.064;2023-07-20T09:35:21;3.80;;;2.87;;
1701;SDS011;848;48.354;10.064;2023-07-20T09:37:49;4.10;;;2.43;;
1701;SDS011;848;48.354;10.064;2023-07-20T09:40:18;3.03;;;2.27;;
1701;SDS011;848;48.354;10.064;2023-07-20T09:42:46;3.67;;;2.00;;
1701;SDS011;848;48.354;10.064;2023-07-20T09:45:14;4.70;;;2.60;;
1701;SDS011;848;48.354;10.064;2023-07-20T09:47:41;3.63;;;2.10;;
1701;SDS011;848;48.354;10.064;2023-07-20T09:50:10;3.20;;;2.50;;
1701;SDS011;848;48.354;10.064;2023-07-20T09:52:38;3.73;;;2.40;;
1701;SDS011;848;48.354;10.064;2023-07-20T09:55:06;3.83;;;2.20;;
1701;SDS011;848;48.354;10.064;2023-07-20T09:57:34;2.37;;;2.03;;
1701;SDS011;848;48.354;10.064;2023-07-20T10:00:02;3.80;;;2.40;;
1701;SDS011;848;48.354;10.064;2023-07-20T10:02:37;2.67;;;1.90;;
1701;SDS011;848;48.354;10.064;2023-07-20T10:05:11;2.60;;;2.07;;
1701;SDS011;848;48.354;10.064;2023-07-20T10:07:40;4.90;;;1.80;;
1701;SDS011;848;48.354;10.064;2023-07-20T10:10:10;3.30;;;2.13;;
1701;SDS011;848;48.354;10.064;2023-07-20T10:12:37;2.00;;;1.77;;
1701;SDS011;848;48.354;10.064;2023-07-20T10:15:09;3.40;;;1.77;;
1701;SDS011;848;48.354;10.064;2023-07-20T10:17:40;2.00;;;1.80;;
1701;SDS011;848;48.354;10.064;2023-07-20T10:20:18;7.00;;;1.83;;
1701;SDS011;848;48.354;10.064;2023-07-20T10:22:47;2.67;;;2.40;;
1701;SDS011;848;48.354;10.064;2023-07-20T10:25:19;2.63;;;1.93;;
1701;SDS011;848;48.354;10.064;2023-07-20T10:27:48;3.97;;;1.73;;
1701;SDS011;848;48.354;10.064;2023-07-20T10:30:21;2.10;;;1.50;;
1701;SDS011;848;48.354;10.064;2023-07-20T10:32:48;2.40;;;1.87;;
1701;SDS011;848;48.354;10.064;2023-07-20T10:35:17;3.70;;;2.03;;
1701;SDS011;848;48.354;10.064;2023-07-20T10:37:51;3.93;;;1.90;;
1701;SDS011;848;48.354;10.064;2023-07-20T10:40:26;6.93;;;2.20;;
1701;SDS011;848;48.354;10.064;2023-07-20T10:42:59;2.60;;;2.07;;
1701;SDS011;848;48.354;10.064;2023-07-20T10:45:41;2.13;;;1.60;;
1701;SDS011;848;48.354;10.064;2023-07-20T10:48:14;2.80;;;2.10;;
1701;SDS011;848;48.354;10.064;2023-07-20T10:50:44;2.00;;;1.80;;
1701;SDS011;848;48.354;10.064;2023-07-20T10:53:14;3.87;;;1.73;;
1701;SDS011;848;48.354;10.064;2023-07-20T10:55:43;5.00;;;2.40;;
1701;SDS011;848;48.354;10.064;2023-07-20T10:58:12;2.40;;;2.20;;
1701;SDS011;848;48.354;10.064;2023-07-20T11:01:00;3.20;;;2.77;;
1701;SDS011;848;48.354;10.064;2023-07-20T11:03:28;2.33;;;2.00;;
1701;SDS011;848;48.354;10.064;2023-07-20T11:05:58;2.70;;;2.03;;
1701;SDS011;848;48.354;10.064;2023-07-20T11:08:38;2.20;;;1.90;;
1701;SDS011;848;48.354;10.064;2023-07-20T11:11:21;4.43;;;1.80;;
1701;SDS011;848;48.354;10.064;2023-07-20T11:13:58;2.23;;;2.03;;
1701;SDS011;848;48.354;10.064;2023-07-20T11:16:33;4.43;;;2.00;;
1701;SDS011;848;48.354;10.064;2023-07-20T11:19:04;2.57;;;1.70;;
1701;SDS011;848;48.354;10.064;2023-07-20T11:21:36;2.40;;;1.60;;
1701;SDS011;848;48.354;10.064;2023-07-20T11:24:05;2.43;;;2.23;;
1701;SDS011;848;48.354;10.064;2023-07-20T11:26:41;4.23;;;2.07;;
1701;SDS011;848;48.354;10.064;2023-07-20T11:29:08;2.40;;;2.20;;
1701;SDS011;848;48.354;10.064;2023-07-20T11:31:35;2.70;;;2.50;;
1701;SDS011;848;48.354;10.064;2023-07-20T11:34:03;2.90;;;2.20;;
1701;SDS011;848;48.354;10.064;2023-07-20T11:36:30;4.40;;;2.10;;
1701;SDS011;848;48.354;10.064;2023-07-20T11:38:58;3.30;;;1.97;;
1701;SDS011;848;48.354;10.064;2023-07-20T11:41:26;2.70;;;2.00;;
1701;SDS011;848;48.354;10.064;2023-07-20T11:43:53;2.30;;;1.80;;
1701;SDS011;848;48.354;10.064;2023-07-20T11:46:21;3.13;;;2.10;;
1701;SDS011;848;48.354;10.064;2023-07-20T11:48:48;2.83;;;1.97;;
1701;SDS011;848;48.354;10.064;2023-07-20T11:51:15;2.83;;;1.73;;
1701;SDS011;848;48.354;10.064;2023-07-20T11:53:43;2.80;;;2.40;;
1701;SDS011;848;48.354;10.064;2023-07-20T11:56:12;2.97;;;2.53;;
1701;SDS011;848;48.354;10.064;2023-07-20T11:58:43;2.57;;;2.37;;
1701;SDS011;848;48.354;10.064;2023-07-20T12:01:11;3.77;;;2.10;;
1701;SDS011;848;48.354;10.064;2023-07-20T12:03:39;5.17;;;2.30;;
1701;SDS011;848;48.354;10.064;2023-07-20T12:06:06;2.77;;;2.30;;
1701;SDS011;848;48.354;10.064;2023-07-20T12:08:34;4.43;;;2.43;;
1701;SDS011;848;48.354;10.064;2023-07-20T12:11:11;2.80;;;2.47;;
1701;SDS011;848;48.354;10.064;2023-07-20T12:13:58;3.90;;;2.60;;
1701;SDS011;848;48.354;10.064;2023-07-20T12:16:26;2.90;;;2.13;;
1701;SDS011;848;48.354;10.064;2023-07-20T12:18:59;4.90;;;2.50;;
1701;SDS011;848;48.354;10.064;2023-07-20T12:21:29;2.67;;;2.03;;
1701;SDS011;848;48.354;10.064;2023-07-20T12:23:56;6.20;;;2.50;;
1701;SDS011;848;48.354;10.064;2023-07-20T12:26:25;2.20;;;1.83;;
1701;SDS011;848;48.354;10.064;2023-07-20T12:28:52;2.57;;;2.00;;
1701;SDS011;848;48.354;10.064;2023-07-20T12:31:19;2.33;;;1.80;;
1701;SDS011;848;48.354;10.064;2023-07-20T12:33:47;6.60;;;2.97;;
1701;SDS011;848;48.354;10.064;2023-07-20T12:36:14;4.63;;;2.57;;
1701;SDS011;848;48.354;10.064;2023-07-20T12:38:41;4.63;;;2.63;;
1701;SDS011;848;48.354;10.064;2023-07-20T12:41:09;12.07;;;2.40;;
1701;SDS011;848;48.354;10.064;2023-07-20T12:43:40;2.40;;;2.00;;
1701;SDS011;848;48.354;10.064;2023-07-20T12:46:07;4.03;;;2.27;;
1701;SDS011;848;48.354;10.064;2023-07-20T12:48:35;5.70;;;2.17;;
1701;SDS011;848;48.354;10.064;2023-07-20T12:51:03;4.07;;;2.17;;
1701;SDS011;848;48.354;10.064;2023-07-20T12:53:30;4.90;;;2.00;;
1701;SDS011;848;48.354;10.064;2023-07-20T12:55:57;5.43;;;2.40;;
1701;SDS011;848;48.354;10.064;2023-07-20T12:58:24;5.70;;;2.37;;
1701;SDS011;848;48.354;10.064;2023-07-20T13:00:53;3.50;;;2.10;;
1701;SDS011;848;48.354;10.064;2023-07-20T13:03:20;3.33;;;2.27;;
1701;SDS011;848;48.354;10.064;2023-07-20T13:05:47;2.90;;;2.33;;
1701;SDS011;848;48.354;10.064;2023-07-20T13:08:15;2.73;;;2.13;;
1701;SDS011;848;48.354;10.064;2023-07-20T13:10:43;3.63;;;1.87;;
1701;SDS011;848;48.354;10.064;2023-07-20T13:13:10;2.60;;;2.17;;
1701;SDS011;848;48.354;10.064;2023-07-20T13:15:40;4.23;;;2.33;;
1701;SDS011;848;48.354;10.064;2023-07-20T13:18:10;3.40;;;2.30;;
1701;SDS011;848;48.354;10.064;2023-07-20T13:20:37;2.63;;;2.20;;
1701;SDS011;848;48.354;10.064;2023-07-20T13:23:04;6.37;;;2.43;;
1701;SDS011;848;48.354;10.064;2023-07-20T13:25:31;4.07;;;2.40;;
1701;SDS011;848;48.354;10.064;2023-07-20T13:27:58;2.17;;;1.83;;
1701;SDS011;848;48.354;10.064;2023-07-20T13:30:25;4.53;;;2.10;;
1701;SDS011;848;48.354;10.064;2023-07-20T13:32:52;2.83;;;1.73;;
1701;SDS011;848;48.354;10.064;2023-07-20T13:35:20;7.03;;;2.50;;
1701;SDS011;848;48.354;10.064;2023-07-20T13:37:47;2.43;;;2.10;;
1701;SDS011;848;48.354;10.064;2023-07-20T13:40:14;6.53;;;2.83;;
1701;SDS011;848;48.354;10.064;2023-07-20T13:42:43;2.80;;;1.97;;
1701;SDS011;848;48.354;10.064;2023-07-20T13:45:10;5.47;;;2.43;;
1701;SDS011;848;48.354;10.064;2023-07-20T13:47:37;2.57;;;2.33;;
1701;SDS011;848;48.354;10.064;2023-07-20T13:50:04;2.70;;;2.10;;
1701;SDS011;848;48.354;10.064;2023-07-20T13:52:33;2.40;;;2.20;;
1701;SDS011;848;48.354;10.064;2023-07-20T13:55:00;2.47;;;2.20;;
1701;SDS011;848;48.354;10.064;2023-07-20T13:57:27;3.47;;;2.40;;
1701;SDS011;848;48.354;10.064;2023-07-20T13:59:54;3.30;;;2.17;;
1701;SDS011;848;48.354;10.064;2023-07-20T14:02:21;5.27;;;2.30;;
1701;SDS011;848;48.354;10.064;2023-07-20T14:04:48;2.80;;;2.20;;
1701;SDS011;848;48.354;10.064;2023-07-20T14:07:15;2.63;;;1.90;;
1701;SDS011;848;48.354;10.064;2023-07-20T14:09:43;3.70;;;2.50;;
1701;SDS011;848;48.354;10.064;2023-07-20T14:12:10;2.30;;;2.00;;
1701;SDS011;848;48.354;10.064;2023-07-20T14:14:39;4.20;;;1.50;;
1701;SDS011;848;48.354;10.064;2023-07-20T14:17:07;5.17;;;2.20;;
1701;SDS011;848;48.354;10.064;2023-07-20T14:19:33;4.37;;;2.63;;
1701;SDS011;848;48.354;10.064;2023-07-20T14:22:02;5.23;;;2.07;;
1701;SDS011;848;48.354;10.064;2023-07-20T14:24:29;2.77;;;1.97;;
1701;SDS011;848;48.354;10.064;2023-07-20T14:26:58;3.53;;;2.33;;
1701;SDS011;848;48.354;10.064;2023-07-20T14:29:25;1.97;;;1.77;;
1701;SDS011;848;48.354;10.064;2023-07-20T14:31:53;2.50;;;1.70;;
1701;SDS011;848;48.354;10.064;2023-07-20T14:34:19;2.63;;;2.37;;
1701;SDS011;848;48.354;10.064;2023-07-20T14:36:47;5.07;;;2.27;;
1701;SDS011;848;48.354;10.064;2023-07-20T14:39:15;5.60;;;2.10;;
1701;SDS011;848;48.354;10.064;2023-07-20T14:41:41;2.50;;;2.00;;
1701;SDS011;848;48.354;10.064;2023-07-20T14:44:10;2.17;;;1.60;;
1701;SDS011;848;48.354;10.064;2023-07-20T14:46:37;2.97;;;2.40;;
1701;SDS011;848;48.354;10.064;2023-07-20T14:49:03;4.50;;;2.50;;
1701;SDS011;848;48.354;10.064;2023-07-20T14:51:30;3.20;;;2.27;;
1701;SDS011;848;48.354;10.064;2023-07-20T14:53:58;5.67;;;1.90;;
1701;SDS011;848;48.354;10.064;2023-07-20T14:56:26;4.40;;;2.57;;
1701;SDS011;848;48.354;10.064;2023-07-20T14:58:53;2.30;;;1.83;;
1701;SDS011;848;48.354;10.064;2023-07-20T15:01:21;2.43;;;2.10;;
1701;SDS011;848;48.354;10.064;2023-07-20T15:03:48;2.50;;;2.03;;
1701;SDS011;848;48.354;10.064;2023-07-20T15:06:18;7.63;;;2.00;;
1701;SDS011;848;48.354;10.064;2023-07-20T15:08:45;2.27;;;1.97;;
1701;SDS011;848;48.354;10.064;2023-07-20T15:11:12;2.03;;;1.80;;
1701;SDS011;848;48.354;10.064;2023-07-20T15:13:38;3.20;;;1.90;;
1701;SDS011;848;48.354;10.064;2023-07-20T15:16:07;3.83;;;2.03;;
1701;SDS011;848;48.354;10.064;2023-07-20T15:18:36;4.13;;;2.63;;
1701;SDS011;848;48.354;10.064;2023-07-20T15:21:03;3.80;;;2.17;;
1701;SDS011;848;48.354;10.064;2023-07-20T15:23:30;3.30;;;1.60;;
1701;SDS011;848;48.354;10.064;2023-07-20T15:25:57;2.83;;;1.60;;